Terminal Aerodrome Forecast
Issued by NWS

Home | Current Version | Previous Version | Text Only | Print | Product List | Glossary On
Versions: 1 2 3 4 5 6 7 8 9 10 11 12 13 14 15 16
799
FTUS44 KLIX 250520
TAFMSY
TAF
KMSY 250520Z 2506/2606 14013KT P6SM SCT018 OVC025
     FM251200 17009KT P6SM BKN050
      TEMPO 2512/2514 4SM TSRA OVC025CB
     FM251400 18011KT P6SM SHRA VCTS BKN060CB
     FM251900 21014G22KT P6SM BKN060
     FM252000 21012KT P6SM BKN070=

USA.gov is the U.S. government's official web portal to all federal, state and local government web resources and services.